ADDS METAR Data INFO
IDs: Format: Raw Decoded Include TAF

Data at: 1148 UTC 23 Jun 2018

KBKE 231053Z AUTO 33004KT 10SM BKN060 13/06 A3005 RMK AO2 SLP154 T01280061
KBKE 230953Z AUTO 33011KT 10SM CLR 13/06 A3004 RMK AO2 SLP148 T01330061
KBKE 230853Z AUTO 33012KT 10SM CLR 14/05 A3003 RMK AO2 SLP145 T01440050 50002
KBKE 230753Z AUTO 32011KT 10SM CLR 15/04 A3003 RMK AO2 SLP147 T01500044 402830083
KBKE 230653Z AUTO 34010KT 10SM FEW070 17/04 A3003 RMK AO2 SLP143 T01670039
KBKE 230553Z AUTO 33010KT 10SM CLR 14/04 A3003 RMK AO2 SLP146 T01390044 10267 20139 50014
KBKE 230453Z AUTO 31005KT 10SM CLR 15/04 A3003 RMK AO2 SLP148 T01500039
KBKE 230353Z AUTO 33009KT 10SM CLR 18/04 A3001 RMK AO2 SLP141 T01780039
KBKE 230153Z AUTO 32018G23KT 10SM CLR 24/05 A2998 RMK AO2 PK WND 33027/0118 SLP128 T02390050 $
KBKE 230053Z AUTO 34019G27KT 10SM CLR 26/07 A2997 RMK AO2 PK WND 35027/0053 SLP129 T02610067 $
KBKE 222353Z AUTO 33016G22KT 10SM CLR 27/09 A2998 RMK AO2 SLP135 T02670089 10283 20239 56009 $
KBKE 222253Z AUTO 33013G20KT 10SM CLR 26/10 A2999 RMK AO2 SLP138 T02610100 $
KBKE 222153Z AUTO 31012KT 10SM CLR 28/11 A3000 RMK AO2 SLP137 T02780111 $
KBKE 222053Z AUTO 28006KT 10SM CLR 28/11 A3001 RMK AO2 LTG DSNT E AND SE SLP142 T02780111 $
KBKE 221953Z AUTO 28005KT 10SM SCT085 25/11 A3004 RMK AO2 LTG DSNT S SLP152 T02500111 $
KBKE 221853Z AUTO 29003KT 10SM FEW090 25/12 A3006 RMK AO2 SLP156 T02500117 $
KBKE 221753Z AUTO VRB03KT 10SM SCT065 24/11 A3008 RMK AO2 SLP162 T02440111 10244 20083 58010
KBKE 221653Z AUTO 35003KT 10SM SCT070 23/12 A3010 RMK AO2 SLP168 T02280117
KBKE 221553Z AUTO 00000KT 10SM BKN070 BKN080 19/13 A3011 RMK AO2 SLP175 T01890128
KBKE 221453Z AUTO 00000KT 10SM SCT080 17/13 A3011 RMK AO2 SLP173 T01720128 51005
KBKE 221353Z AUTO 00000KT 10SM CLR 14/12 A3011 RMK AO2 SLP175 T01440117
KBKE 221253Z AUTO 14003KT 10SM CLR 10/09 A3011 RMK AO2 SLP181 T01000089
KBKE 221236Z AUTO 00000KT 3SM BR FEW090 10/08 A3010 RMK AO2 T01000078
KBKE 221219Z AUTO 00000KT 1/2SM FG FEW090 09/08 A3010 RMK AO2 T00890078
KBKE 221156Z AUTO 00000KT 1 3/4SM BR CLR 08/07 A3010 RMK AO2 VIS 1V5 T00830072
KBKE 221153Z AUTO 00000KT 3SM BR CLR 09/08 A3010 RMK AO2 SLP175 T00890078 10156 20089 55001
KBKE 221053Z AUTO 00000KT 3SM BR CLR 09/07 A3009 RMK AO2 SLP173 T00940072
KBKE 220953Z AUTO 15003KT 10SM CLR 11/08 A3010 RMK AO2 SLP174 T01060083
KBKE 220853Z AUTO 21003KT 10SM CLR 11/09 A3010 RMK AO2 SLP176 T01110094 53002
KBKE 220753Z AUTO 24005KT 10SM CLR 13/11 A3009 RMK AO2 SLP173 T01280106 402610122
KBKE 220653Z AUTO 00000KT 10SM CLR 14/12 A3009 RMK AO2 SLP171 T01390117
KBKE 220553Z AUTO 27003KT 10SM CLR 16/12 A3009 RMK AO2 SLP171 60000 T01560122 10244 20150 51008
KBKE 220453Z AUTO 00000KT 10SM CLR 17/13 A3009 RMK AO2 SLP170 T01720128
KBKE 220353Z AUTO 20003KT 10SM CLR 19/14 A3008 RMK AO2 SLP164 T01940139
KBKE 220253Z AUTO 22004KT 10SM FEW080 23/13 A3006 RMK AO2 SLP156 60000 T02280128 53001
KBKE 220153Z AUTO 30003KT 10SM CLR 24/14 A3006 RMK AO2 SLP157 T02440139
KBKE 220053Z AUTO 29004KT 10SM FEW070 SCT085 22/14 A3006 RMK AO2 RAB05E16B31E44 SLP161 P0000 T02220144
KBKE 220036Z AUTO 29006KT 10SM -RA BKN090 22/14 A3007 RMK AO2 RAB05E16B31 P0000 T02170139
KBKE 220021Z AUTO 31007KT 10SM VCTS FEW070 FEW090 SCT100 23/13 A3006 RMK AO2 LTG DSNT W RAB05E16 P0000 T02280133
KBKE 212353Z AUTO 31007KT 10SM SCT100 24/13 A3006 RMK AO2 LTG DSNT W AND NW SLP159 T02390133 10261 20200 58009